createdAt,value
2019-02-15T00:02:03.110Z,23.35
2019-02-15T00:05:05.768Z,17.25
2019-02-15T00:08:08.559Z,9.68
2019-02-15T00:11:11.346Z,24.27
2019-02-15T00:14:14.125Z,22.80
2019-02-15T00:17:16.909Z,22.82
2019-02-15T00:20:19.688Z,19.92
2019-02-15T00:23:22.477Z,10.93
2019-02-15T00:26:25.258Z,26.23
2019-02-15T00:29:27.789Z,25.57
2019-02-15T00:32:30.826Z,29.07
2019-02-15T00:35:29.777Z,24.37
2019-02-15T00:38:32.556Z,11.18
2019-02-15T00:41:35.336Z,11.05
2019-02-15T00:44:37.862Z,21.30
2019-02-15T00:47:40.648Z,10.75
2019-02-15T00:50:43.433Z,7.50
2019-02-15T00:53:46.472Z,18.23
2019-02-15T00:56:50.280Z,20.10
2019-02-15T01:00:00.745Z,18.00
2019-02-15T01:03:03.528Z,27.67
2019-02-15T01:06:06.313Z,25.08
2019-02-15T01:09:09.104Z,26.30
2019-02-15T01:12:12.649Z,10.25
2019-02-15T01:15:15.687Z,20.23
2019-02-15T01:18:18.216Z,12.88
2019-02-15T01:21:21.003Z,30.37
2019-02-15T01:24:24.109Z,20.05
2019-02-15T01:27:26.573Z,32.05
2019-02-15T01:30:29.612Z,26.05
2019-02-15T01:33:32.654Z,26.48
2019-02-15T01:36:35.687Z,29.52
2019-02-15T01:39:38.734Z,26.73
2019-02-15T01:42:41.257Z,23.18
2019-02-15T01:45:44.042Z,18.70
2019-02-15T01:48:46.825Z,13.80
2019-02-15T01:51:49.608Z,18.70
2019-02-15T01:54:52.396Z,10.23
2019-02-15T01:57:51.339Z,25.17
2019-02-15T02:00:54.128Z,25.97
2019-02-15T02:03:57.164Z,29.45
2019-02-15T02:06:59.950Z,25.12
2019-02-15T02:10:02.738Z,22.90
2019-02-15T02:13:06.026Z,31.80
2019-02-15T02:16:08.558Z,29.02
2019-02-15T02:19:11.089Z,26.48
2019-02-15T02:22:13.864Z,11.65
2019-02-15T02:25:16.656Z,12.88
2019-02-15T02:28:19.693Z,23.42
2019-02-15T02:31:22.517Z,20.75
2019-02-15T02:34:25.261Z,30.20
2019-02-15T02:37:28.815Z,29.30
2019-02-15T02:40:31.341Z,10.28
2019-02-15T02:43:34.125Z,20.12
2019-02-15T02:46:36.393Z,17.27
2019-02-15T02:49:38.925Z,26.80
2019-02-15T02:52:42.233Z,33.70
2019-02-15T02:55:44.754Z,32.20
2019-02-15T02:58:47.530Z,18.00
2019-02-15T03:01:50.324Z,19.80
2019-02-15T03:04:53.101Z,29.98
2019-02-15T03:07:55.625Z,19.23
2019-02-15T03:10:58.921Z,13.68
2019-02-15T03:14:11.183Z,12.88
2019-02-15T03:17:05.771Z,30.45
2019-02-15T03:20:08.816Z,25.68
2019-02-15T03:23:11.852Z,22.65
2019-02-15T03:26:14.384Z,10.78
2019-02-15T03:29:16.907Z,30.85
2019-02-15T03:32:20.253Z,27.67
2019-02-15T03:35:23.753Z,30.97
2019-02-15T03:38:26.283Z,31.48
2019-02-15T03:41:29.329Z,11.55
2019-02-15T03:44:31.854Z,27.58
2019-02-15T03:47:34.381Z,28.30
2019-02-15T03:50:36.655Z,16.55
2019-02-15T03:53:40.460Z,25.40
2019-02-15T03:56:42.990Z,24.35
2019-02-15T03:59:45.778Z,24.52
2019-02-15T04:02:48.816Z,24.47
2019-02-15T04:05:52.109Z,30.92
2019-02-15T04:08:55.404Z,11.50
2019-02-15T04:11:57.935Z,26.57
2019-02-15T04:15:00.967Z,10.05
2019-02-15T04:18:04.012Z,18.37
2019-02-15T04:21:06.535Z,20.50
2019-02-15T04:24:05.524Z,10.08
2019-02-15T04:27:09.034Z,21.97
2019-02-15T04:30:12.082Z,24.87
2019-02-15T04:33:15.121Z,28.92
2019-02-15T04:36:17.648Z,29.95
2019-02-15T04:39:20.185Z,28.57
2019-02-15T04:42:22.957Z,27.93
2019-02-15T04:45:25.739Z,25.95
2019-02-15T04:48:28.270Z,23.83
2019-02-15T04:51:31.311Z,29.02
2019-02-15T04:54:33.834Z,22.02
2019-02-15T04:57:37.129Z,26.75
2019-02-15T05:00:41.452Z,25.65
2019-02-15T05:03:44.501Z,25.30
2019-02-15T05:06:47.630Z,26.23
2019-02-15T05:09:50.572Z,21.20
2019-02-15T05:12:53.353Z,28.73
2019-02-15T05:15:56.136Z,26.40
2019-02-15T05:18:59.951Z,23.22
2019-02-15T05:22:02.473Z,19.60
2019-02-15T05:25:05.264Z,24.37
2019-02-15T05:28:08.946Z,25.77
2019-02-15T05:31:11.080Z,22.95
2019-02-15T05:34:10.140Z,23.35
2019-02-15T05:37:13.064Z,19.82
2019-02-15T05:40:15.849Z,24.57
2019-02-15T05:43:19.403Z,26.23
2019-02-15T05:46:22.194Z,26.50
2019-02-15T05:49:24.722Z,20.23
2019-02-15T05:52:27.247Z,27.90
2019-02-15T05:55:29.773Z,24.57
2019-02-15T05:58:32.557Z,19.65
2019-02-15T06:01:35.089Z,25.57
2019-02-15T06:04:37.613Z,26.02
2019-02-15T06:07:42.188Z,22.32
2019-02-15T06:10:45.737Z,23.27
2019-02-15T06:13:48.521Z,25.80
2019-02-15T06:16:51.305Z,23.52
2019-02-15T06:19:55.370Z,24.72
2019-02-15T06:23:03.020Z,28.05
2019-02-15T06:26:01.826Z,17.82
2019-02-15T06:29:04.488Z,23.40
2019-02-15T06:32:07.017Z,20.05
2019-02-15T06:35:17.224Z,22.13
2019-02-15T06:38:20.264Z,27.40
2019-02-15T06:41:23.052Z,23.73
2019-02-15T06:44:22.290Z,14.80
2019-02-15T06:47:24.777Z,28.73
2019-02-15T06:50:27.564Z,12.93
2019-02-15T06:53:31.376Z,20.48
2019-02-15T06:56:30.952Z,21.57
2019-02-15T06:59:33.635Z,8.18
2019-02-15T07:02:36.398Z,14.78
2019-02-15T07:05:39.430Z,9.95
2019-02-15T07:08:43.239Z,21.40
2019-02-15T07:11:47.048Z,16.42
2019-02-15T07:14:49.578Z,21.35
2019-02-15T07:17:52.618Z,6.90
2019-02-15T07:20:56.682Z,10.05
2019-02-15T07:23:59.467Z,26.50
2019-02-15T07:27:02.254Z,22.93
2019-02-15T07:30:04.525Z,10.70
2019-02-15T07:33:07.312Z,9.45
2019-02-15T07:36:10.090Z,8.73
2019-02-15T07:39:12.877Z,17.15
2019-02-15T07:42:15.400Z,21.62
2019-02-15T07:45:18.086Z,10.13
2019-02-15T07:48:20.482Z,14.60
2019-02-15T07:51:22.990Z,21.00
2019-02-15T07:54:26.024Z,19.42
2019-02-15T07:57:28.811Z,8.78
2019-02-15T08:00:31.849Z,10.48
2019-02-15T08:03:36.424Z,21.10
2019-02-15T08:06:39.207Z,24.67
2019-02-15T08:09:43.792Z,15.05
2019-02-15T08:12:46.570Z,23.05
2019-02-15T08:15:51.585Z,13.58
2019-02-15T08:18:48.552Z,18.02
2019-02-15T08:21:51.344Z,15.48
2019-02-15T08:24:54.388Z,19.75
2019-02-15T08:27:57.671Z,15.35
2019-02-15T08:31:00.718Z,9.08
2019-02-15T08:34:03.762Z,18.60
2019-02-15T08:37:06.550Z,14.28
2019-02-15T08:40:09.323Z,27.55
2019-02-15T08:43:11.849Z,9.85
2019-02-15T08:46:14.892Z,21.57
2019-02-15T08:49:17.675Z,20.17
2019-02-15T08:52:21.480Z,8.33
2019-02-15T08:55:24.009Z,26.77
2019-02-15T08:58:26.794Z,18.42
2019-02-15T09:01:25.740Z,19.35
2019-02-15T09:04:28.779Z,20.80
2019-02-15T09:07:31.312Z,15.90
2019-02-15T09:10:34.347Z,20.08
2019-02-15T09:13:37.384Z,14.68
2019-02-15T09:16:39.917Z,22.90
2019-02-15T09:19:42.695Z,17.92
2019-02-15T09:22:45.484Z,19.67
2019-02-15T09:25:48.267Z,19.05
2019-02-15T09:28:51.560Z,18.25
2019-02-15T09:31:54.601Z,23.80
2019-02-15T09:34:57.390Z,16.23
2019-02-15T09:38:00.174Z,25.48
2019-02-15T09:41:02.953Z,17.73
2019-02-15T09:44:05.994Z,13.98
2019-02-15T09:47:08.782Z,16.15
2019-02-15T09:50:12.232Z,15.80
2019-02-15T09:53:14.090Z,12.55
2019-02-15T09:56:16.873Z,21.02
2019-02-15T09:59:20.685Z,21.40
2019-02-15T10:02:23.463Z,20.32
2019-02-15T10:05:26.503Z,19.90
2019-02-15T10:08:29.031Z,11.20
2019-02-15T10:11:28.242Z,20.10
2019-02-15T10:14:31.274Z,14.63
2019-02-15T10:17:34.323Z,22.55
2019-02-15T10:20:37.352Z,22.27
2019-02-15T10:23:40.137Z,18.27
2019-02-15T10:26:43.176Z,13.30
2019-02-15T10:29:45.961Z,20.10
2019-02-15T10:32:49.002Z,15.55
2019-02-15T10:35:52.041Z,17.82
2019-02-15T10:38:54.569Z,24.75
2019-02-15T10:41:57.352Z,21.57
2019-02-15T10:45:01.162Z,23.55
2019-02-15T10:48:04.970Z,17.87
2019-02-15T10:51:07.752Z,19.45
2019-02-15T10:57:25.096Z,24.87
2019-02-15T11:00:27.887Z,18.73
2019-02-15T11:03:34.008Z,14.93
2019-02-15T11:06:33.361Z,18.42
2019-02-15T11:09:35.984Z,18.50
2019-02-15T11:12:38.508Z,22.80
2019-02-15T11:15:42.567Z,14.05
2019-02-15T11:18:45.608Z,25.32
2019-02-15T11:21:55.825Z,19.98
2019-02-15T11:24:58.605Z,20.72
2019-02-15T11:28:02.154Z,23.20
2019-02-15T11:31:05.961Z,24.30
2019-02-15T11:34:08.536Z,24.57
2019-02-15T11:37:11.273Z,18.15
2019-02-15T11:40:14.064Z,20.40
2019-02-15T11:43:17.109Z,20.02
2019-02-15T11:46:19.881Z,21.40
2019-02-15T11:49:22.669Z,22.75
2019-02-15T11:52:25.449Z,23.98
2019-02-15T11:55:29.000Z,19.67
2019-02-15T11:58:31.786Z,17.40
2019-02-15T12:01:35.341Z,15.50
2019-02-15T12:05:06.280Z,14.63
2019-02-15T12:11:48.456Z,28.07
2019-02-15T12:14:51.497Z,22.60
2019-02-15T12:17:55.052Z,22.75
2019-02-15T12:20:57.833Z,18.32
2019-02-15T12:24:00.364Z,21.35
2019-02-15T12:27:04.684Z,20.80
2019-02-15T12:30:07.472Z,24.57
2019-02-15T12:33:10.250Z,21.07
2019-02-15T12:36:12.777Z,20.72
2019-02-15T12:40:10.602Z,24.67
2019-02-15T12:43:13.129Z,23.62
2019-02-15T12:46:15.677Z,24.37
2019-02-15T12:49:18.705Z,25.82
2019-02-15T12:52:21.226Z,18.23
2019-02-15T12:55:24.266Z,26.68
2019-02-15T12:58:27.306Z,19.42
2019-02-15T13:01:29.832Z,23.05
2019-02-15T13:04:32.623Z,25.10
2019-02-15T13:07:35.401Z,25.12
2019-02-15T13:10:38.440Z,20.00
2019-02-15T13:13:41.228Z,25.23
2019-02-15T13:16:43.760Z,22.77
2019-02-15T13:19:46.535Z,20.43
2019-02-15T13:22:45.486Z,25.05
2019-02-15T13:25:48.277Z,20.52
2019-02-15T13:28:51.051Z,21.73
2019-02-15T13:31:53.836Z,22.98
2019-02-15T13:34:56.625Z,25.52
2019-02-15T13:37:59.658Z,20.27
2019-02-15T13:41:03.474Z,23.80
2019-02-15T13:44:06.249Z,22.32
2019-02-15T13:47:09.032Z,16.10
2019-02-15T13:50:11.564Z,25.20
2019-02-15T13:53:14.356Z,19.48
2019-02-15T13:56:17.131Z,19.12
2019-02-15T13:59:19.686Z,23.67
2019-02-15T14:02:23.464Z,15.43
2019-02-15T14:05:25.991Z,19.45
2019-02-15T14:08:25.193Z,21.50
2019-02-15T14:11:27.721Z,23.20
2019-02-15T14:14:30.504Z,17.87
2019-02-15T14:17:33.070Z,13.60
2019-02-15T14:20:35.815Z,17.52
2019-02-15T14:23:38.856Z,19.45
2019-02-15T14:26:37.769Z,11.40
2019-02-15T14:29:41.869Z,13.75
2019-02-15T14:32:42.192Z,13.65
2019-02-15T14:35:45.415Z,19.02
2019-02-15T14:38:48.168Z,23.92
2019-02-15T14:41:51.723Z,14.30
2019-02-15T14:44:54.508Z,24.15
2019-02-15T14:47:55.203Z,23.92
2019-02-15T14:50:59.334Z,21.50
2019-02-15T14:54:02.100Z,18.55
2019-02-15T14:57:04.615Z,22.20
2019-02-15T15:00:08.433Z,22.22
2019-02-15T15:03:11.463Z,19.40
2019-02-15T15:06:13.992Z,20.20
2019-02-15T15:09:16.777Z,17.30
2019-02-15T15:12:20.074Z,24.12
2019-02-15T15:15:22.600Z,26.55
2019-02-15T15:18:25.386Z,19.20
2019-02-15T15:21:28.171Z,15.10
2019-02-15T15:24:33.769Z,16.90
2019-02-15T15:27:38.096Z,15.40
2019-02-15T15:30:41.901Z,19.10
2019-02-15T15:33:44.681Z,21.82
2019-02-15T15:36:49.567Z,23.42
2019-02-15T15:39:51.273Z,17.55
2019-02-15T15:42:54.060Z,12.58
2019-02-15T15:45:57.611Z,19.37
2019-02-15T15:49:00.397Z,19.95
2019-02-15T15:52:03.434Z,23.10
2019-02-15T15:55:06.217Z,27.13
2019-02-15T16:01:23.565Z,16.52
2019-02-15T16:04:26.345Z,25.72
2019-02-15T16:07:29.912Z,22.65
2019-02-15T16:10:32.437Z,19.85
2019-02-15T16:13:36.234Z,22.22
2019-02-15T16:16:39.017Z,22.07
2019-02-15T16:19:49.440Z,21.23
2019-02-15T16:22:45.610Z,21.27
2019-02-15T16:25:48.391Z,17.48
2019-02-15T16:28:51.183Z,22.58
2019-02-15T16:31:53.965Z,18.35
2019-02-15T16:34:57.258Z,22.82
2019-02-15T16:37:59.784Z,22.80
2019-02-15T16:41:02.311Z,24.15
2019-02-15T16:44:05.868Z,23.32
2019-02-15T16:47:08.909Z,21.30
2019-02-15T16:50:11.954Z,26.25
2019-02-15T16:53:14.727Z,21.87
2019-02-15T16:56:17.515Z,27.13
2019-02-15T16:59:20.552Z,24.00
2019-02-15T17:02:23.598Z,28.07
2019-02-15T17:05:26.378Z,27.32
2019-02-15T17:08:32.746Z,25.23
2019-02-15T17:11:35.276Z,24.65
2019-02-15T17:14:39.851Z,23.45
2019-02-15T17:17:42.635Z,21.70
2019-02-15T17:20:45.420Z,18.10
2019-02-15T17:23:48.457Z,29.32
2019-02-15T17:26:50.986Z,20.52
2019-02-15T17:29:53.519Z,23.32
2019-02-15T17:32:56.304Z,24.40
2019-02-15T17:36:00.106Z,28.90
2019-02-15T17:39:05.968Z,25.55
2019-02-15T17:42:08.746Z,42.75
2019-02-15T17:45:11.572Z,31.05
2019-02-15T17:48:15.849Z,22.30
2019-02-15T17:51:18.891Z,33.10
2019-02-15T17:54:21.678Z,23.90
2019-02-15T17:57:24.460Z,25.32
2019-02-15T18:00:27.244Z,26.23
2019-02-15T18:03:29.776Z,24.92
2019-02-15T18:06:32.555Z,30.48
2019-02-15T18:09:35.337Z,38.25
2019-02-15T18:12:38.122Z,33.80
2019-02-15T18:15:40.907Z,30.30
2019-02-15T18:18:43.948Z,39.75
2019-02-15T18:21:46.475Z,29.48
2019-02-15T18:24:49.258Z,41.40
2019-02-15T18:27:53.067Z,33.55
2019-02-15T18:30:55.851Z,36.42
2019-02-15T18:33:59.403Z,36.60
2019-02-15T18:37:02.189Z,32.58
2019-02-15T18:40:04.969Z,30.08
2019-02-15T18:43:08.526Z,31.82
2019-02-15T18:46:11.308Z,40.05
2019-02-15T18:49:19.283Z,35.40
2019-02-15T18:52:16.618Z,38.80
2019-02-15T18:55:19.661Z,37.98
2019-02-15T18:58:22.190Z,36.48
2019-02-15T19:01:25.994Z,35.83
2019-02-15T19:04:29.038Z,51.83
2019-02-15T19:07:32.845Z,48.92
2019-02-15T19:10:35.627Z,47.62
2019-02-15T19:13:38.413Z,59.42
2019-02-15T19:16:48.362Z,52.73
2019-02-15T19:19:51.920Z,51.58
2019-02-15T19:22:54.442Z,48.78
2019-02-15T19:25:57.224Z,57.88
2019-02-15T19:29:00.011Z,54.85
2019-02-15T19:32:03.052Z,49.58
2019-02-15T19:35:07.625Z,54.13
2019-02-15T19:38:10.416Z,55.45
2019-02-15T19:41:13.451Z,53.05
2019-02-15T19:44:16.499Z,53.42
2019-02-15T19:47:19.279Z,48.70
2019-02-15T19:50:22.320Z,49.65
2019-02-15T19:53:25.132Z,59.30
2019-02-15T19:56:35.306Z,51.40
2019-02-15T19:59:37.833Z,52.60
2019-02-15T20:02:40.622Z,53.30
2019-02-15T20:05:43.152Z,53.20
2019-02-15T20:08:45.934Z,57.43
2019-02-15T20:11:48.716Z,49.95
2019-02-15T20:14:51.760Z,50.58
2019-02-15T20:17:56.590Z,49.60
2019-02-15T20:20:59.123Z,44.75
2019-02-15T20:23:58.477Z,44.58
2019-02-15T20:27:01.360Z,34.35
2019-02-15T20:30:05.422Z,47.20
2019-02-15T20:33:15.371Z,51.45
2019-02-15T20:36:18.161Z,46.88
2019-02-15T20:39:20.682Z,36.70
2019-02-15T20:42:23.723Z,22.60
2019-02-15T20:45:26.768Z,38.73
2019-02-15T20:48:29.546Z,29.55
2019-02-15T20:51:43.340Z,29.65
2019-02-15T20:54:46.378Z,47.93
2019-02-15T20:57:50.457Z,44.85
2019-02-15T21:00:56.198Z,44.58
2019-02-15T21:03:57.293Z,27.02
2019-02-15T21:07:00.075Z,34.85
2019-02-15T21:10:02.602Z,46.30
2019-02-15T21:13:05.131Z,45.83
2019-02-15T21:16:07.658Z,46.90
2019-02-15T21:19:10.187Z,48.10
2019-02-15T21:22:12.975Z,48.58
2019-02-15T21:25:15.760Z,47.27
2019-02-15T21:28:18.552Z,70.57
2019-02-15T21:31:22.604Z,41.08
2019-02-15T21:34:25.413Z,59.20
2019-02-15T21:37:28.170Z,47.70
2019-02-15T21:40:30.445Z,49.77
2019-02-15T21:43:33.226Z,45.38
2019-02-15T21:46:38.174Z,43.38
2019-02-15T21:49:40.992Z,37.03
2019-02-15T21:52:44.462Z,47.80
2019-02-15T21:55:42.604Z,42.13
2019-02-15T21:58:45.354Z,41.80
2019-02-15T22:01:47.625Z,44.48
2019-02-15T22:04:52.462Z,39.45
2019-02-15T22:07:55.241Z,49.27
2019-02-15T22:10:58.284Z,38.65
2019-02-15T22:14:00.811Z,48.20
2019-02-15T22:17:03.596Z,45.78
2019-02-15T22:20:06.120Z,39.83
2019-02-15T22:23:20.427Z,46.55
2019-02-15T22:26:22.960Z,42.75
2019-02-15T22:29:25.551Z,43.20
2019-02-15T22:32:28.265Z,40.28
2019-02-15T22:35:39.753Z,36.25
2019-02-15T22:38:45.609Z,41.60
2019-02-15T22:41:48.906Z,21.37
2019-02-15T22:44:52.461Z,40.70
2019-02-15T22:47:54.998Z,43.52
2019-02-15T22:50:57.771Z,38.17
2019-02-15T22:54:01.328Z,39.95
2019-02-15T22:57:03.849Z,17.30
2019-02-15T23:00:12.663Z,44.50
2019-02-15T23:03:09.679Z,38.08
2019-02-15T23:06:14.506Z,35.23
2019-02-15T23:09:17.292Z,32.90
2019-02-15T23:12:20.076Z,37.00
2019-02-15T23:15:23.121Z,35.00
2019-02-15T23:18:25.646Z,32.33
2019-02-15T23:21:28.685Z,36.95
2019-02-15T23:24:31.723Z,36.30
2019-02-15T23:27:34.508Z,34.20
2019-02-15T23:30:37.032Z,18.30
2019-02-15T23:33:39.821Z,19.73
2019-02-15T23:36:42.861Z,41.23
2019-02-15T23:39:45.386Z,39.13
2019-02-15T23:42:48.171Z,39.40
2019-02-15T23:45:50.700Z,34.60
2019-02-15T23:48:53.484Z,19.82
2019-02-15T23:51:56.267Z,38.20
2019-02-15T23:54:58.794Z,36.15
2019-02-15T23:58:01.835Z,33.58
